createdAt,value
2023-05-17T00:01:51.760Z,21.86
2023-05-17T00:04:57.378Z,21.48
2023-05-17T00:08:03.500Z,21.68
2023-05-17T00:11:08.855Z,21.66
2023-05-17T00:14:14.407Z,21.58
2023-05-17T00:17:14.436Z,21.72
2023-05-17T00:20:19.888Z,21.50
2023-05-17T00:23:24.953Z,21.65
2023-05-17T00:26:30.020Z,21.46
2023-05-17T00:29:35.781Z,21.38
2023-05-17T00:32:43.299Z,21.49
2023-05-17T00:35:48.991Z,21.37
2023-05-17T00:38:55.576Z,21.55
2023-05-17T00:41:54.793Z,21.53
2023-05-17T00:45:01.357Z,21.55
2023-05-17T00:48:07.293Z,21.84
2023-05-17T00:51:14.869Z,21.71
2023-05-17T00:54:13.654Z,21.59
2023-05-17T00:57:19.474Z,21.62
2023-05-17T01:00:25.252Z,21.73
2023-05-17T01:03:30.690Z,21.88
2023-05-17T01:06:37.367Z,21.85
2023-05-17T01:09:42.858Z,21.54
2023-05-17T01:13:02.419Z,21.50
2023-05-17T01:16:26.441Z,21.61
2023-05-17T01:20:12.684Z,21.31
2023-05-17T01:23:38.424Z,21.37
2023-05-17T01:26:54.960Z,21.43
2023-05-17T01:30:00.973Z,21.29
2023-05-17T01:33:07.683Z,21.43
2023-05-17T01:36:13.266Z,21.35
2023-05-17T01:39:19.887Z,21.35
2023-05-17T01:42:40.524Z,21.25
2023-05-17T01:45:49.548Z,21.02
2023-05-17T01:48:51.115Z,20.93
2023-05-17T01:52:32.682Z,20.97
2023-05-17T01:56:08.373Z,20.88
2023-05-17T01:59:13.994Z,20.89
2023-05-17T02:02:20.867Z,21.00
2023-05-17T02:05:26.428Z,20.94
2023-05-17T02:08:33.268Z,21.08
2023-05-17T02:11:39.776Z,21.17
2023-05-17T02:14:46.066Z,21.26
2023-05-17T02:17:51.753Z,21.14
2023-05-17T02:20:58.210Z,21.21
2023-05-17T02:24:04.105Z,21.00
2023-05-17T02:27:10.837Z,21.26
2023-05-17T02:30:18.060Z,21.16
2023-05-17T02:33:23.415Z,21.18
2023-05-17T02:36:29.519Z,21.34
2023-05-17T02:39:36.613Z,21.87
2023-05-17T02:42:42.266Z,21.96
2023-05-17T02:45:48.037Z,21.98
2023-05-17T02:48:54.953Z,21.97
2023-05-17T02:52:01.492Z,21.92
2023-05-17T02:55:07.254Z,21.91
2023-05-17T02:58:13.167Z,22.11
2023-05-17T03:01:18.495Z,22.08
2023-05-17T03:04:26.562Z,22.19
2023-05-17T03:07:31.534Z,22.01
2023-05-17T03:10:37.577Z,21.91
2023-05-17T03:13:43.609Z,21.87
2023-05-17T03:16:52.331Z,22.03
2023-05-17T03:19:58.705Z,21.87
2023-05-17T03:23:04.407Z,22.01
2023-05-17T03:26:13.387Z,22.14
2023-05-17T03:29:21.878Z,22.33
2023-05-17T03:32:27.555Z,22.34
2023-05-17T03:35:32.984Z,22.22
2023-05-17T03:38:38.480Z,22.39
2023-05-17T03:41:43.989Z,22.43
2023-05-17T03:44:49.602Z,22.55
2023-05-17T03:47:57.968Z,22.65
2023-05-17T03:51:03.600Z,22.81
2023-05-17T03:54:13.788Z,23.07
2023-05-17T03:57:19.612Z,23.20
2023-05-17T04:00:30.157Z,23.09
2023-05-17T04:03:37.406Z,23.34
2023-05-17T04:06:43.019Z,23.41
2023-05-17T04:09:48.889Z,23.42
2023-05-17T04:12:55.213Z,23.47
2023-05-17T04:15:53.243Z,23.71
2023-05-17T04:18:41.236Z,23.99
2023-05-17T04:21:34.922Z,24.31
2023-05-17T04:24:26.863Z,24.32
2023-05-17T04:27:32.912Z,24.27
2023-05-17T04:30:37.934Z,24.19
2023-05-17T04:33:44.342Z,24.11
2023-05-17T04:36:49.050Z,23.98
2023-05-17T04:39:55.298Z,24.12
2023-05-17T04:43:02.180Z,24.17
2023-05-17T04:46:14.018Z,24.50
2023-05-17T04:49:19.617Z,24.50
2023-05-17T04:52:26.289Z,24.56
2023-05-17T04:55:31.816Z,24.83
2023-05-17T04:58:38.816Z,24.77
2023-05-17T05:01:43.935Z,25.05
2023-05-17T05:04:49.039Z,25.11
2023-05-17T05:07:55.645Z,25.34
2023-05-17T05:11:01.505Z,25.22
2023-05-17T05:14:11.833Z,25.51
2023-05-17T05:17:17.115Z,25.44
2023-05-17T05:20:23.774Z,25.28
2023-05-17T05:23:30.286Z,25.22
2023-05-17T05:26:36.552Z,25.23
2023-05-17T05:29:42.196Z,25.12
2023-05-17T05:32:48.517Z,24.93
2023-05-17T05:35:55.257Z,25.01
2023-05-17T05:39:01.129Z,24.99
2023-05-17T05:42:05.883Z,25.02
2023-05-17T05:45:10.928Z,25.22
2023-05-17T05:48:18.591Z,25.34
2023-05-17T05:51:24.005Z,25.42
2023-05-17T05:54:29.535Z,25.36
2023-05-17T05:57:35.000Z,25.60
2023-05-17T06:00:42.059Z,25.91
2023-05-17T06:03:47.389Z,25.98
2023-05-17T06:06:54.091Z,26.05
2023-05-17T06:10:01.019Z,26.15
2023-05-17T06:13:06.184Z,26.59
2023-05-17T06:16:12.541Z,26.88
2023-05-17T06:19:18.691Z,27.09
2023-05-17T06:22:23.815Z,27.13
2023-05-17T06:25:28.223Z,27.02
2023-05-17T06:28:34.562Z,27.14
2023-05-17T06:31:40.309Z,26.93
2023-05-17T06:34:46.630Z,27.03
2023-05-17T06:37:46.777Z,27.19
2023-05-17T06:40:32.430Z,27.24
2023-05-17T06:43:25.828Z,27.44
2023-05-17T06:46:18.272Z,27.58
2023-05-17T06:49:24.356Z,27.68
2023-05-17T06:52:29.078Z,27.67
2023-05-17T06:55:34.040Z,27.62
2023-05-17T06:58:42.112Z,27.37
2023-05-17T07:01:47.855Z,27.46
2023-05-17T07:04:53.515Z,27.49
2023-05-17T07:07:59.186Z,27.49
2023-05-17T07:11:07.724Z,27.35
2023-05-17T07:14:14.162Z,27.15
2023-05-17T07:17:20.076Z,27.06
2023-05-17T07:20:27.003Z,27.11
2023-05-17T07:23:33.479Z,26.79
2023-05-17T07:26:38.783Z,26.93
2023-05-17T07:29:44.786Z,26.95
2023-05-17T07:32:44.397Z,27.09
2023-05-17T07:35:49.790Z,27.14
2023-05-17T07:38:56.650Z,27.15
2023-05-17T07:42:04.568Z,27.11
2023-05-17T07:45:09.641Z,27.18
2023-05-17T07:48:16.391Z,27.11
2023-05-17T07:51:22.891Z,27.29
2023-05-17T07:54:39.681Z,27.55
2023-05-17T07:57:45.437Z,27.64
2023-05-17T08:00:51.953Z,27.74
2023-05-17T08:03:57.588Z,27.72
2023-05-17T08:20:43.027Z,30.92
2023-05-17T08:23:49.309Z,30.78
2023-05-17T08:26:54.966Z,30.79
2023-05-17T08:30:05.370Z,31.09
2023-05-17T08:33:11.580Z,31.01
2023-05-17T08:36:17.003Z,31.15
2023-05-17T08:39:23.072Z,31.00
2023-05-17T08:42:27.729Z,30.41
2023-05-17T08:45:34.122Z,30.40
2023-05-17T08:48:45.073Z,30.03
2023-05-17T08:51:51.822Z,30.25
2023-05-17T08:54:57.823Z,30.22
2023-05-17T08:58:02.806Z,30.11
2023-05-17T09:01:09.191Z,29.63
2023-05-17T09:04:14.979Z,30.20
2023-05-17T09:07:19.951Z,30.01
2023-05-17T09:10:26.118Z,29.79
2023-05-17T09:13:33.057Z,29.92
2023-05-17T09:16:38.510Z,29.73
2023-05-17T09:19:44.517Z,29.35
2023-05-17T09:22:53.557Z,29.43
2023-05-17T09:26:05.130Z,29.55
2023-05-17T09:29:11.063Z,29.66
2023-05-17T09:32:34.886Z,29.60
2023-05-17T09:35:49.350Z,29.64
2023-05-17T09:38:56.003Z,29.75
2023-05-17T09:42:02.688Z,29.89
2023-05-17T09:45:10.787Z,29.79
2023-05-17T09:48:29.921Z,29.66
2023-05-17T09:51:48.957Z,29.68
2023-05-17T09:54:54.824Z,29.56
2023-05-17T09:58:00.626Z,29.72
2023-05-17T10:01:16.920Z,29.90
2023-05-17T10:04:24.644Z,30.03
2023-05-17T10:07:33.571Z,29.76
2023-05-17T10:10:39.790Z,29.85
2023-05-17T10:14:01.856Z,29.88
2023-05-17T10:17:06.844Z,30.13
2023-05-17T10:20:14.407Z,30.09
2023-05-17T10:23:20.165Z,30.01
2023-05-17T10:26:26.629Z,30.10
2023-05-17T10:29:31.980Z,30.14
2023-05-17T10:32:37.727Z,30.03
2023-05-17T10:35:43.274Z,29.98
2023-05-17T10:38:48.850Z,30.14
2023-05-17T10:42:10.768Z,30.15
2023-05-17T10:45:08.044Z,30.09
2023-05-17T10:48:14.386Z,30.14
2023-05-17T10:51:24.957Z,30.13
2023-05-17T10:54:30.925Z,30.36
2023-05-17T10:57:50.625Z,30.53
2023-05-17T11:00:56.174Z,30.59
2023-05-17T11:04:02.633Z,30.64
2023-05-17T11:07:11.653Z,30.49
2023-05-17T11:10:25.817Z,30.73
2023-05-17T11:13:43.648Z,30.52
2023-05-17T11:16:51.946Z,30.59
2023-05-17T11:20:27.233Z,30.59
2023-05-17T11:23:35.432Z,30.70
2023-05-17T11:26:49.061Z,30.39
2023-05-17T11:29:58.182Z,30.21
2023-05-17T11:33:21.225Z,30.35
2023-05-17T11:36:16.833Z,30.23
2023-05-17T11:39:30.696Z,30.19
2023-05-17T11:42:41.000Z,30.11
2023-05-17T11:45:58.955Z,30.28
2023-05-17T11:49:07.051Z,30.34
2023-05-17T11:52:12.962Z,30.47
2023-05-17T11:55:19.502Z,30.25
2023-05-17T11:58:27.352Z,30.16
2023-05-17T12:01:34.058Z,30.26
2023-05-17T12:04:41.757Z,30.29
2023-05-17T12:07:42.464Z,30.12
2023-05-17T12:10:48.732Z,30.19
2023-05-17T12:13:55.308Z,30.18
2023-05-17T12:17:05.458Z,30.04
2023-05-17T12:20:10.747Z,29.32
2023-05-17T12:23:16.322Z,29.35
2023-05-17T12:26:29.212Z,29.13
2023-05-17T12:29:36.206Z,29.60
2023-05-17T12:32:42.151Z,29.95
2023-05-17T12:35:48.189Z,29.76
2023-05-17T12:38:57.872Z,29.86
2023-05-17T12:42:04.422Z,29.11
2023-05-17T12:45:09.572Z,28.99
2023-05-17T12:48:15.299Z,28.98
2023-05-17T12:51:31.183Z,28.94
2023-05-17T12:54:42.031Z,29.07
2023-05-17T12:57:47.320Z,29.13
2023-05-17T13:00:53.471Z,29.04
2023-05-17T13:04:02.206Z,28.93
2023-05-17T13:07:10.921Z,28.81
2023-05-17T13:10:18.161Z,28.61
2023-05-17T13:13:24.109Z,28.57
2023-05-17T13:16:29.780Z,28.39
2023-05-17T13:19:45.697Z,28.41
2023-05-17T13:22:57.252Z,28.41
2023-05-17T13:26:03.623Z,28.57
2023-05-17T13:29:10.309Z,28.65
2023-05-17T13:32:15.800Z,28.38
2023-05-17T13:35:23.398Z,29.03
2023-05-17T13:38:29.411Z,28.45
2023-05-17T13:41:35.117Z,28.59
2023-05-17T13:44:41.768Z,28.73
2023-05-17T13:47:47.743Z,28.92
2023-05-17T13:50:54.350Z,29.08
2023-05-17T13:54:01.493Z,28.99
2023-05-17T13:57:09.408Z,28.99
2023-05-17T14:00:15.950Z,29.14
2023-05-17T14:03:15.205Z,29.07
2023-05-17T14:06:21.685Z,29.13
2023-05-17T14:09:28.512Z,29.57
2023-05-17T14:12:34.328Z,29.76
2023-05-17T14:15:45.285Z,29.69
2023-05-17T14:18:52.988Z,29.86
2023-05-17T14:21:59.316Z,29.69
2023-05-17T14:25:05.176Z,29.73
2023-05-17T14:28:12.090Z,29.65
2023-05-17T14:31:18.195Z,29.61
2023-05-17T14:34:24.590Z,29.64
2023-05-17T14:37:30.687Z,29.39
2023-05-17T14:40:37.315Z,29.48
2023-05-17T14:43:42.867Z,29.31
2023-05-17T14:46:47.695Z,29.50
2023-05-17T14:49:53.848Z,29.51
2023-05-17T14:53:01.607Z,29.40
2023-05-17T14:56:07.452Z,29.28
2023-05-17T14:59:13.481Z,28.86
2023-05-17T15:02:22.729Z,29.11
2023-05-17T15:05:28.938Z,29.08
2023-05-17T15:08:35.340Z,29.03
2023-05-17T15:11:41.378Z,28.95
2023-05-17T15:14:46.994Z,28.69
2023-05-17T15:17:53.078Z,28.76
2023-05-17T15:20:59.935Z,28.43
2023-05-17T15:24:06.785Z,28.66
2023-05-17T15:27:13.266Z,28.61
2023-05-17T15:30:19.948Z,28.65
2023-05-17T15:33:26.790Z,28.64
2023-05-17T15:36:32.492Z,28.56
2023-05-17T15:39:39.424Z,28.42
2023-05-17T15:42:45.342Z,28.60
2023-05-17T15:45:51.304Z,28.48
2023-05-17T15:48:57.790Z,28.45
2023-05-17T15:52:03.224Z,28.42
2023-05-17T15:55:09.110Z,28.43
2023-05-17T15:58:15.960Z,28.47
2023-05-17T16:01:22.720Z,28.41
2023-05-17T16:04:23.305Z,28.39
2023-05-17T16:07:09.413Z,28.37
2023-05-17T16:10:01.589Z,28.14
2023-05-17T16:12:56.153Z,28.18
2023-05-17T16:16:02.198Z,28.10
2023-05-17T16:19:08.337Z,28.05
2023-05-17T16:22:13.780Z,27.93
2023-05-17T16:25:19.652Z,27.98
2023-05-17T16:28:28.068Z,27.81
2023-05-17T16:31:33.837Z,27.68
2023-05-17T16:34:39.454Z,27.47
2023-05-17T16:37:45.799Z,27.50
2023-05-17T16:40:52.286Z,27.41
2023-05-17T16:43:57.540Z,27.44
2023-05-17T16:47:02.840Z,27.14
2023-05-17T16:50:09.755Z,27.03
2023-05-17T16:53:16.289Z,26.80
2023-05-17T16:56:22.481Z,26.65
2023-05-17T16:59:29.251Z,26.51
2023-05-17T17:02:34.880Z,26.26
2023-05-17T17:05:42.183Z,26.08
2023-05-17T17:08:47.044Z,25.91
2023-05-17T17:11:52.554Z,25.78
2023-05-17T17:14:58.353Z,25.72
2023-05-17T17:17:59.684Z,25.52
2023-05-17T17:20:45.505Z,25.47
2023-05-17T17:23:38.226Z,25.31
2023-05-17T17:26:36.702Z,25.25
2023-05-17T17:29:35.474Z,25.11
2023-05-17T17:32:35.107Z,25.08
2023-05-17T17:35:33.474Z,25.00
2023-05-17T17:38:20.409Z,24.85
2023-05-17T17:41:13.017Z,24.72
2023-05-17T17:43:58.855Z,24.65
2023-05-17T17:46:51.616Z,24.56
2023-05-17T17:49:37.493Z,24.46
2023-05-17T17:52:29.265Z,24.46
2023-05-17T17:55:17.379Z,24.40
2023-05-17T17:58:08.736Z,24.25
2023-05-17T18:01:01.536Z,24.19
2023-05-17T18:04:07.790Z,24.20
2023-05-17T18:07:13.531Z,24.10
2023-05-17T18:10:21.377Z,23.87
2023-05-17T18:13:26.870Z,23.86
2023-05-17T18:16:32.705Z,23.85
2023-05-17T18:19:38.576Z,23.80
2023-05-17T18:22:44.641Z,23.61
2023-05-17T18:25:50.096Z,23.46
2023-05-17T18:28:57.146Z,23.40
2023-05-17T18:32:05.367Z,23.33
2023-05-17T18:35:11.188Z,23.18
2023-05-17T18:38:17.084Z,23.13
2023-05-17T18:41:22.939Z,23.00
2023-05-17T18:44:27.862Z,22.90
2023-05-17T18:47:34.621Z,22.87
2023-05-17T18:50:41.446Z,22.81
2023-05-17T18:53:48.276Z,22.76
2023-05-17T18:56:54.268Z,22.68
2023-05-17T19:00:00.507Z,22.61
2023-05-17T19:03:07.320Z,22.47
2023-05-17T19:06:12.820Z,22.40
2023-05-17T19:09:18.421Z,22.31
2023-05-17T19:12:24.170Z,22.19
2023-05-17T19:15:30.352Z,22.09
2023-05-17T19:18:35.678Z,22.05
2023-05-17T19:21:42.020Z,22.00
2023-05-17T19:24:48.012Z,22.03
2023-05-17T19:27:54.296Z,22.08
2023-05-17T19:31:00.970Z,22.04
2023-05-17T19:34:08.182Z,21.91
2023-05-17T19:37:07.026Z,21.81
2023-05-17T19:39:53.028Z,21.81
2023-05-17T19:42:47.151Z,21.83
2023-05-17T19:45:53.422Z,21.83
2023-05-17T19:48:59.760Z,21.79
2023-05-17T19:52:07.695Z,21.73
2023-05-17T19:55:13.046Z,21.67
2023-05-17T19:58:19.453Z,21.65
2023-05-17T20:01:25.125Z,21.61
2023-05-17T20:04:30.543Z,21.61
2023-05-17T20:07:35.803Z,21.63
2023-05-17T20:10:40.386Z,21.69
2023-05-17T20:13:47.167Z,21.76
2023-05-17T20:16:53.948Z,21.80
2023-05-17T20:20:00.629Z,21.84
2023-05-17T20:23:07.217Z,21.79
2023-05-17T20:26:13.971Z,21.77
2023-05-17T20:29:20.595Z,21.67
2023-05-17T20:32:25.598Z,21.61
2023-05-17T20:35:31.336Z,21.62
2023-05-17T20:38:36.868Z,21.44
2023-05-17T20:41:43.219Z,21.22
2023-05-17T20:44:50.165Z,21.14
2023-05-17T20:47:57.998Z,21.14
2023-05-17T20:51:03.768Z,21.05
2023-05-17T20:54:08.891Z,21.04
2023-05-17T20:57:08.475Z,21.04
2023-05-17T21:00:01.772Z,21.01
2023-05-17T21:03:08.829Z,21.03
2023-05-17T21:06:15.291Z,20.99
2023-05-17T21:09:20.431Z,20.80
2023-05-17T21:12:27.567Z,20.90
2023-05-17T21:15:34.436Z,20.91
2023-05-17T21:18:41.280Z,20.97
2023-05-17T21:21:47.047Z,21.02
2023-05-17T21:24:53.237Z,20.90
2023-05-17T21:27:59.706Z,20.84
2023-05-17T21:31:07.545Z,20.87
2023-05-17T21:34:06.492Z,20.89
2023-05-17T21:37:07.453Z,20.98
2023-05-17T21:40:13.987Z,21.01
2023-05-17T21:43:19.179Z,21.14
2023-05-17T21:46:24.075Z,21.10
2023-05-17T21:49:29.307Z,21.12
2023-05-17T21:52:34.571Z,21.10
2023-05-17T21:55:56.329Z,21.05
2023-05-17T21:58:46.840Z,21.08
2023-05-17T22:01:53.325Z,21.01
2023-05-17T22:04:59.682Z,21.16
2023-05-17T22:08:06.629Z,20.99
2023-05-17T22:11:13.229Z,20.94
2023-05-17T22:14:19.857Z,20.98
2023-05-17T22:17:27.513Z,20.89
2023-05-17T22:20:34.473Z,20.75
2023-05-17T22:23:40.080Z,20.62
2023-05-17T22:26:45.587Z,20.54
2023-05-17T22:29:51.339Z,20.48
2023-05-17T22:32:59.956Z,20.46
2023-05-17T22:36:06.291Z,20.31
2023-05-17T22:39:12.509Z,20.29
2023-05-17T22:42:18.054Z,20.20
2023-05-17T22:45:25.422Z,20.15
2023-05-17T22:48:31.000Z,20.16
2023-05-17T22:51:37.269Z,20.16
2023-05-17T22:54:42.776Z,20.11
2023-05-17T22:57:48.220Z,20.06
2023-05-17T23:00:57.444Z,19.97
2023-05-17T23:04:02.947Z,20.00
2023-05-17T23:07:10.378Z,19.97
2023-05-17T23:10:17.747Z,19.95
2023-05-17T23:13:25.155Z,19.98
2023-05-17T23:16:32.964Z,19.95
2023-05-17T23:19:38.719Z,19.98
2023-05-17T23:22:43.625Z,19.98
2023-05-17T23:25:42.574Z,19.81
2023-05-17T23:28:48.443Z,19.82
2023-05-17T23:31:55.149Z,19.78
2023-05-17T23:35:04.082Z,19.81
2023-05-17T23:38:10.862Z,19.76
2023-05-17T23:41:17.851Z,19.58
2023-05-17T23:44:24.610Z,19.72
2023-05-17T23:47:30.199Z,19.57
2023-05-17T23:50:37.397Z,19.57
2023-05-17T23:53:44.713Z,19.51
2023-05-17T23:56:43.918Z,19.44
2023-05-17T23:59:50.867Z,19.41
